sensor_id;sensor_type;location;lat;lon;timestamp;P1;durP1;ratioP1;P2;durP2;ratioP2
33864;SDS011;20159;51.072;13.526;2023-03-21T00:00:38;16.10;;;12.70;;
33864;SDS011;20159;51.072;13.526;2023-03-21T00:03:04;16.30;;;13.00;;
33864;SDS011;20159;51.072;13.526;2023-03-21T00:05:30;15.15;;;12.93;;
33864;SDS011;20159;51.072;13.526;2023-03-21T00:07:56;15.85;;;13.38;;
33864;SDS011;20159;51.072;13.526;2023-03-21T00:10:21;16.45;;;13.73;;
33864;SDS011;20159;51.072;13.526;2023-03-21T00:12:47;16.08;;;12.98;;
33864;SDS011;20159;51.072;13.526;2023-03-21T00:15:19;16.20;;;12.85;;
33864;SDS011;20159;51.072;13.526;2023-03-21T00:17:44;16.20;;;12.75;;
33864;SDS011;20159;51.072;13.526;2023-03-21T00:20:10;16.73;;;13.70;;
33864;SDS011;20159;51.072;13.526;2023-03-21T00:22:39;16.00;;;13.82;;
33864;SDS011;20159;51.072;13.526;2023-03-21T00:25:05;18.23;;;13.88;;
33864;SDS011;20159;51.072;13.526;2023-03-21T00:27:32;17.13;;;14.48;;
33864;SDS011;20159;51.072;13.526;2023-03-21T00:29:58;16.92;;;14.85;;
33864;SDS011;20159;51.072;13.526;2023-03-21T00:32:24;17.10;;;15.27;;
33864;SDS011;20159;51.072;13.526;2023-03-21T00:34:50;19.08;;;17.00;;
33864;SDS011;20159;51.072;13.526;2023-03-21T00:37:16;22.45;;;18.35;;
33864;SDS011;20159;51.072;13.526;2023-03-21T00:39:43;22.67;;;18.50;;
33864;SDS011;20159;51.072;13.526;2023-03-21T00:42:13;22.27;;;18.38;;
33864;SDS011;20159;51.072;13.526;2023-03-21T00:44:39;23.65;;;20.02;;
33864;SDS011;20159;51.072;13.526;2023-03-21T00:47:05;23.67;;;20.23;;
33864;SDS011;20159;51.072;13.526;2023-03-21T00:49:31;23.10;;;19.95;;
33864;SDS011;20159;51.072;13.526;2023-03-21T00:52:06;24.25;;;19.98;;
33864;SDS011;20159;51.072;13.526;2023-03-21T00:54:33;22.15;;;19.30;;
33864;SDS011;20159;51.072;13.526;2023-03-21T00:56:59;24.30;;;20.23;;
33864;SDS011;20159;51.072;13.526;2023-03-21T00:59:26;25.90;;;20.63;;
33864;SDS011;20159;51.072;13.526;2023-03-21T01:01:52;24.98;;;21.00;;
33864;SDS011;20159;51.072;13.526;2023-03-21T01:04:24;25.15;;;21.25;;
33864;SDS011;20159;51.072;13.526;2023-03-21T01:06:50;25.65;;;22.75;;
33864;SDS011;20159;51.072;13.526;2023-03-21T01:09:21;24.88;;;21.45;;
33864;SDS011;20159;51.072;13.526;2023-03-21T01:11:48;26.30;;;22.25;;
33864;SDS011;20159;51.072;13.526;2023-03-21T01:14:15;25.13;;;21.45;;
33864;SDS011;20159;51.072;13.526;2023-03-21T01:16:42;25.40;;;20.73;;
33864;SDS011;20159;51.072;13.526;2023-03-21T01:19:09;24.67;;;21.88;;
33864;SDS011;20159;51.072;13.526;2023-03-21T01:21:36;23.27;;;19.60;;
33864;SDS011;20159;51.072;13.526;2023-03-21T01:24:02;24.17;;;20.70;;
33864;SDS011;20159;51.072;13.526;2023-03-21T01:26:28;23.75;;;20.27;;
33864;SDS011;20159;51.072;13.526;2023-03-21T01:28:53;24.55;;;20.52;;
33864;SDS011;20159;51.072;13.526;2023-03-21T01:31:19;22.48;;;19.83;;
33864;SDS011;20159;51.072;13.526;2023-03-21T01:33:45;26.75;;;21.58;;
33864;SDS011;20159;51.072;13.526;2023-03-21T01:36:15;24.02;;;20.63;;
33864;SDS011;20159;51.072;13.526;2023-03-21T01:38:46;24.88;;;21.58;;
33864;SDS011;20159;51.072;13.526;2023-03-21T01:41:28;25.65;;;21.67;;
33864;SDS011;20159;51.072;13.526;2023-03-21T01:43:56;24.10;;;21.52;;
33864;SDS011;20159;51.072;13.526;2023-03-21T01:48:59;28.13;;;22.20;;
33864;SDS011;20159;51.072;13.526;2023-03-21T01:52:06;23.70;;;20.73;;
33864;SDS011;20159;51.072;13.526;2023-03-21T01:54:35;24.10;;;21.13;;
33864;SDS011;20159;51.072;13.526;2023-03-21T01:57:06;24.60;;;21.58;;
33864;SDS011;20159;51.072;13.526;2023-03-21T01:59:36;21.73;;;19.52;;
33864;SDS011;20159;51.072;13.526;2023-03-21T02:02:07;23.63;;;21.08;;
33864;SDS011;20159;51.072;13.526;2023-03-21T02:04:41;25.23;;;22.52;;
33864;SDS011;20159;51.072;13.526;2023-03-21T02:07:29;24.58;;;22.05;;
33864;SDS011;20159;51.072;13.526;2023-03-21T02:10:00;23.77;;;21.20;;
33864;SDS011;20159;51.072;13.526;2023-03-21T02:12:29;23.88;;;21.35;;
33864;SDS011;20159;51.072;13.526;2023-03-21T02:14:56;26.23;;;22.20;;
33864;SDS011;20159;51.072;13.526;2023-03-21T02:17:25;24.10;;;21.52;;
33864;SDS011;20159;51.072;13.526;2023-03-21T02:20:18;23.15;;;20.67;;
33864;SDS011;20159;51.072;13.526;2023-03-21T02:28:25;20.38;;;17.58;;
33864;SDS011;20159;51.072;13.526;2023-03-21T02:34:01;21.95;;;18.15;;
33864;SDS011;20159;51.072;13.526;2023-03-21T02:37:04;27.15;;;20.85;;
33864;SDS011;20159;51.072;13.526;2023-03-21T02:39:59;26.02;;;23.27;;
33864;SDS011;20159;51.072;13.526;2023-03-21T02:42:42;26.02;;;23.23;;
33864;SDS011;20159;51.072;13.526;2023-03-21T02:45:19;27.90;;;24.13;;
33864;SDS011;20159;51.072;13.526;2023-03-21T02:47:52;28.98;;;25.88;;
33864;SDS011;20159;51.072;13.526;2023-03-21T02:50:29;28.08;;;24.67;;
33864;SDS011;20159;51.072;13.526;2023-03-21T02:53:06;26.92;;;24.13;;
33864;SDS011;20159;51.072;13.526;2023-03-21T02:55:34;27.42;;;24.52;;
33864;SDS011;20159;51.072;13.526;2023-03-21T02:58:03;29.50;;;25.10;;
33864;SDS011;20159;51.072;13.526;2023-03-21T03:00:33;28.55;;;24.95;;
33864;SDS011;20159;51.072;13.526;2023-03-21T03:03:00;28.75;;;25.70;;
33864;SDS011;20159;51.072;13.526;2023-03-21T03:05:28;26.30;;;23.50;;
33864;SDS011;20159;51.072;13.526;2023-03-21T03:19:10;27.90;;;24.88;;
33864;SDS011;20159;51.072;13.526;2023-03-21T03:21:48;30.58;;;25.20;;
33864;SDS011;20159;51.072;13.526;2023-03-21T03:24:23;28.10;;;25.13;;
33864;SDS011;20159;51.072;13.526;2023-03-21T03:26:57;30.10;;;25.70;;
33864;SDS011;20159;51.072;13.526;2023-03-21T03:29:30;31.00;;;25.23;;
33864;SDS011;20159;51.072;13.526;2023-03-21T03:32:04;27.50;;;24.58;;
33864;SDS011;20159;51.072;13.526;2023-03-21T03:34:41;28.33;;;25.25;;
33864;SDS011;20159;51.072;13.526;2023-03-21T03:37:14;29.52;;;25.45;;
33864;SDS011;20159;51.072;13.526;2023-03-21T03:39:52;28.70;;;25.13;;
33864;SDS011;20159;51.072;13.526;2023-03-21T03:42:27;29.80;;;26.05;;
33864;SDS011;20159;51.072;13.526;2023-03-21T03:45:01;29.95;;;25.27;;
33864;SDS011;20159;51.072;13.526;2023-03-21T03:47:41;30.23;;;26.10;;
33864;SDS011;20159;51.072;13.526;2023-03-21T03:50:13;29.30;;;26.20;;
33864;SDS011;20159;51.072;13.526;2023-03-21T03:52:52;30.50;;;25.90;;
33864;SDS011;20159;51.072;13.526;2023-03-21T03:55:30;29.45;;;26.13;;
33864;SDS011;20159;51.072;13.526;2023-03-21T03:57:58;30.25;;;25.70;;
33864;SDS011;20159;51.072;13.526;2023-03-21T04:00:26;30.67;;;26.83;;
33864;SDS011;20159;51.072;13.526;2023-03-21T04:02:55;29.63;;;25.23;;
33864;SDS011;20159;51.072;13.526;2023-03-21T04:05:23;29.33;;;26.17;;
33864;SDS011;20159;51.072;13.526;2023-03-21T04:07:48;28.00;;;24.48;;
33864;SDS011;20159;51.072;13.526;2023-03-21T04:10:15;27.05;;;24.10;;
33864;SDS011;20159;51.072;13.526;2023-03-21T04:12:41;30.63;;;23.70;;
33864;SDS011;20159;51.072;13.526;2023-03-21T04:15:06;24.23;;;21.60;;
33864;SDS011;20159;51.072;13.526;2023-03-21T04:17:32;22.27;;;19.13;;
33864;SDS011;20159;51.072;13.526;2023-03-21T04:19:58;18.42;;;16.42;;
33864;SDS011;20159;51.072;13.526;2023-03-21T04:22:23;18.27;;;15.80;;
33864;SDS011;20159;51.072;13.526;2023-03-21T04:24:49;17.33;;;13.95;;
33864;SDS011;20159;51.072;13.526;2023-03-21T04:27:15;14.40;;;12.75;;
33864;SDS011;20159;51.072;13.526;2023-03-21T04:29:40;14.88;;;11.50;;
33864;SDS011;20159;51.072;13.526;2023-03-21T04:32:06;10.90;;;9.63;;
33864;SDS011;20159;51.072;13.526;2023-03-21T04:34:40;13.80;;;9.88;;
33864;SDS011;20159;51.072;13.526;2023-03-21T04:37:17;14.43;;;9.48;;
33864;SDS011;20159;51.072;13.526;2023-03-21T04:39:43;11.48;;;9.07;;
33864;SDS011;20159;51.072;13.526;2023-03-21T04:42:10;11.45;;;8.40;;
33864;SDS011;20159;51.072;13.526;2023-03-21T04:44:38;11.80;;;8.35;;
33864;SDS011;20159;51.072;13.526;2023-03-21T04:47:06;9.43;;;8.20;;
33864;SDS011;20159;51.072;13.526;2023-03-21T04:49:32;10.98;;;8.23;;
33864;SDS011;20159;51.072;13.526;2023-03-21T04:51:58;13.05;;;8.90;;
33864;SDS011;20159;51.072;13.526;2023-03-21T04:54:23;11.13;;;8.50;;
33864;SDS011;20159;51.072;13.526;2023-03-21T04:56:49;12.40;;;8.65;;
33864;SDS011;20159;51.072;13.526;2023-03-21T04:59:16;10.77;;;9.07;;
33864;SDS011;20159;51.072;13.526;2023-03-21T05:01:42;10.38;;;8.90;;
33864;SDS011;20159;51.072;13.526;2023-03-21T05:04:09;9.90;;;8.02;;
33864;SDS011;20159;51.072;13.526;2023-03-21T05:06:37;13.43;;;9.50;;
33864;SDS011;20159;51.072;13.526;2023-03-21T05:09:03;13.93;;;8.70;;
33864;SDS011;20159;51.072;13.526;2023-03-21T05:11:29;12.20;;;8.73;;
33864;SDS011;20159;51.072;13.526;2023-03-21T05:13:56;10.50;;;8.40;;
33864;SDS011;20159;51.072;13.526;2023-03-21T05:16:23;13.20;;;9.20;;
33864;SDS011;20159;51.072;13.526;2023-03-21T05:18:51;13.00;;;9.48;;
33864;SDS011;20159;51.072;13.526;2023-03-21T05:21:19;18.38;;;9.52;;
33864;SDS011;20159;51.072;13.526;2023-03-21T05:23:47;14.40;;;10.40;;
33864;SDS011;20159;51.072;13.526;2023-03-21T05:26:22;12.63;;;10.50;;
33864;SDS011;20159;51.072;13.526;2023-03-21T05:28:48;12.45;;;10.00;;
33864;SDS011;20159;51.072;13.526;2023-03-21T05:31:14;12.27;;;9.80;;
33864;SDS011;20159;51.072;13.526;2023-03-21T05:33:42;13.05;;;10.25;;
33864;SDS011;20159;51.072;13.526;2023-03-21T05:36:08;11.75;;;10.38;;
33864;SDS011;20159;51.072;13.526;2023-03-21T05:38:34;13.63;;;9.70;;
33864;SDS011;20159;51.072;13.526;2023-03-21T05:40:59;11.93;;;10.23;;
33864;SDS011;20159;51.072;13.526;2023-03-21T05:43:25;11.98;;;10.48;;
33864;SDS011;20159;51.072;13.526;2023-03-21T05:45:51;14.00;;;10.88;;
33864;SDS011;20159;51.072;13.526;2023-03-21T05:48:16;15.60;;;10.25;;
33864;SDS011;20159;51.072;13.526;2023-03-21T05:50:42;13.02;;;10.43;;
33864;SDS011;20159;51.072;13.526;2023-03-21T05:53:08;17.10;;;11.98;;
33864;SDS011;20159;51.072;13.526;2023-03-21T05:55:33;14.23;;;11.77;;
33864;SDS011;20159;51.072;13.526;2023-03-21T05:57:59;13.20;;;11.18;;
33864;SDS011;20159;51.072;13.526;2023-03-21T06:00:25;14.35;;;10.75;;
33864;SDS011;20159;51.072;13.526;2023-03-21T06:02:50;12.15;;;10.65;;
33864;SDS011;20159;51.072;13.526;2023-03-21T06:05:16;14.07;;;11.60;;
33864;SDS011;20159;51.072;13.526;2023-03-21T06:07:41;14.23;;;10.55;;
33864;SDS011;20159;51.072;13.526;2023-03-21T06:10:07;14.80;;;10.23;;
33864;SDS011;20159;51.072;13.526;2023-03-21T06:12:33;13.95;;;11.02;;
33864;SDS011;20159;51.072;13.526;2023-03-21T06:14:59;14.32;;;10.95;;
33864;SDS011;20159;51.072;13.526;2023-03-21T06:17:25;12.90;;;10.77;;
33864;SDS011;20159;51.072;13.526;2023-03-21T06:19:51;13.27;;;10.50;;
33864;SDS011;20159;51.072;13.526;2023-03-21T06:22:16;11.70;;;9.25;;
33864;SDS011;20159;51.072;13.526;2023-03-21T06:24:42;11.00;;;9.27;;
33864;SDS011;20159;51.072;13.526;2023-03-21T06:27:07;11.20;;;8.70;;
33864;SDS011;20159;51.072;13.526;2023-03-21T06:29:33;15.27;;;9.55;;
33864;SDS011;20159;51.072;13.526;2023-03-21T06:31:58;13.50;;;9.68;;
33864;SDS011;20159;51.072;13.526;2023-03-21T06:34:24;13.20;;;9.57;;
33864;SDS011;20159;51.072;13.526;2023-03-21T06:36:50;11.13;;;9.25;;
33864;SDS011;20159;51.072;13.526;2023-03-21T06:39:18;11.35;;;8.75;;
33864;SDS011;20159;51.072;13.526;2023-03-21T06:41:45;14.75;;;10.05;;
33864;SDS011;20159;51.072;13.526;2023-03-21T06:44:10;11.93;;;9.80;;
33864;SDS011;20159;51.072;13.526;2023-03-21T06:46:36;13.57;;;10.02;;
33864;SDS011;20159;51.072;13.526;2023-03-21T06:49:02;10.88;;;9.10;;
33864;SDS011;20159;51.072;13.526;2023-03-21T06:51:27;10.38;;;8.70;;
33864;SDS011;20159;51.072;13.526;2023-03-21T06:53:53;11.25;;;8.80;;
33864;SDS011;20159;51.072;13.526;2023-03-21T06:56:18;12.55;;;9.40;;
33864;SDS011;20159;51.072;13.526;2023-03-21T06:58:44;15.25;;;8.70;;
33864;SDS011;20159;51.072;13.526;2023-03-21T07:01:10;11.82;;;9.23;;
33864;SDS011;20159;51.072;13.526;2023-03-21T07:03:36;10.98;;;8.98;;
33864;SDS011;20159;51.072;13.526;2023-03-21T07:06:05;12.63;;;8.82;;
33864;SDS011;20159;51.072;13.526;2023-03-21T07:08:35;10.32;;;8.57;;
33864;SDS011;20159;51.072;13.526;2023-03-21T07:11:04;12.35;;;8.70;;
33864;SDS011;20159;51.072;13.526;2023-03-21T07:13:31;11.20;;;8.32;;
33864;SDS011;20159;51.072;13.526;2023-03-21T07:16:00;14.65;;;9.05;;
33864;SDS011;20159;51.072;13.526;2023-03-21T07:18:25;11.68;;;8.70;;
33864;SDS011;20159;51.072;13.526;2023-03-21T07:20:51;11.00;;;8.10;;
33864;SDS011;20159;51.072;13.526;2023-03-21T07:23:17;8.95;;;7.97;;
33864;SDS011;20159;51.072;13.526;2023-03-21T07:25:44;12.20;;;8.98;;
33864;SDS011;20159;51.072;13.526;2023-03-21T07:28:11;11.32;;;8.73;;
33864;SDS011;20159;51.072;13.526;2023-03-21T07:30:36;12.55;;;8.68;;
33864;SDS011;20159;51.072;13.526;2023-03-21T07:33:10;9.57;;;8.32;;
33864;SDS011;20159;51.072;13.526;2023-03-21T07:35:36;9.13;;;7.95;;
33864;SDS011;20159;51.072;13.526;2023-03-21T07:38:02;10.48;;;7.80;;
33864;SDS011;20159;51.072;13.526;2023-03-21T07:40:29;9.68;;;7.90;;
33864;SDS011;20159;51.072;13.526;2023-03-21T07:42:55;10.18;;;8.02;;
33864;SDS011;20159;51.072;13.526;2023-03-21T07:45:20;10.20;;;7.38;;
33864;SDS011;20159;51.072;13.526;2023-03-21T07:47:49;9.48;;;7.28;;
33864;SDS011;20159;51.072;13.526;2023-03-21T07:50:15;8.88;;;6.85;;
33864;SDS011;20159;51.072;13.526;2023-03-21T07:52:41;7.78;;;6.57;;
33864;SDS011;20159;51.072;13.526;2023-03-21T07:55:07;8.75;;;7.55;;
33864;SDS011;20159;51.072;13.526;2023-03-21T07:57:33;7.80;;;6.50;;
33864;SDS011;20159;51.072;13.526;2023-03-21T07:59:58;9.02;;;6.60;;
33864;SDS011;20159;51.072;13.526;2023-03-21T08:02:24;7.30;;;6.35;;
33864;SDS011;20159;51.072;13.526;2023-03-21T08:04:49;9.20;;;6.45;;
33864;SDS011;20159;51.072;13.526;2023-03-21T08:07:15;9.23;;;6.90;;
33864;SDS011;20159;51.072;13.526;2023-03-21T08:09:41;7.45;;;5.90;;
33864;SDS011;20159;51.072;13.526;2023-03-21T08:12:07;11.57;;;6.43;;
33864;SDS011;20159;51.072;13.526;2023-03-21T08:14:33;8.73;;;6.25;;
33864;SDS011;20159;51.072;13.526;2023-03-21T08:16:59;7.10;;;6.15;;
33864;SDS011;20159;51.072;13.526;2023-03-21T08:19:25;8.18;;;5.97;;
33864;SDS011;20159;51.072;13.526;2023-03-21T08:21:51;7.22;;;6.07;;
33864;SDS011;20159;51.072;13.526;2023-03-21T08:24:16;7.45;;;6.00;;
33864;SDS011;20159;51.072;13.526;2023-03-21T08:26:42;7.07;;;6.03;;
33864;SDS011;20159;51.072;13.526;2023-03-21T08:29:09;8.05;;;6.22;;
33864;SDS011;20159;51.072;13.526;2023-03-21T08:31:36;8.75;;;6.90;;
33864;SDS011;20159;51.072;13.526;2023-03-21T08:34:03;7.82;;;7.03;;
33864;SDS011;20159;51.072;13.526;2023-03-21T08:36:28;8.63;;;7.30;;
33864;SDS011;20159;51.072;13.526;2023-03-21T08:38:55;9.80;;;6.93;;
33864;SDS011;20159;51.072;13.526;2023-03-21T08:41:29;8.60;;;6.80;;
33864;SDS011;20159;51.072;13.526;2023-03-21T08:43:58;8.43;;;6.43;;
33864;SDS011;20159;51.072;13.526;2023-03-21T08:46:23;9.20;;;7.18;;
33864;SDS011;20159;51.072;13.526;2023-03-21T08:48:49;7.18;;;6.45;;
33864;SDS011;20159;51.072;13.526;2023-03-21T08:51:14;7.85;;;6.40;;
33864;SDS011;20159;51.072;13.526;2023-03-21T08:53:40;8.18;;;6.20;;
33864;SDS011;20159;51.072;13.526;2023-03-21T08:56:06;8.20;;;7.07;;
33864;SDS011;20159;51.072;13.526;2023-03-21T08:58:32;8.95;;;7.03;;
33864;SDS011;20159;51.072;13.526;2023-03-21T09:00:57;8.18;;;7.18;;
33864;SDS011;20159;51.072;13.526;2023-03-21T09:03:23;9.13;;;6.65;;
33864;SDS011;20159;51.072;13.526;2023-03-21T09:05:54;9.90;;;7.50;;
33864;SDS011;20159;51.072;13.526;2023-03-21T09:08:20;11.57;;;7.55;;
33864;SDS011;20159;51.072;13.526;2023-03-21T09:10:47;9.45;;;7.43;;
33864;SDS011;20159;51.072;13.526;2023-03-21T09:13:13;9.35;;;7.18;;
33864;SDS011;20159;51.072;13.526;2023-03-21T09:15:39;10.60;;;6.88;;
33864;SDS011;20159;51.072;13.526;2023-03-21T09:18:05;9.50;;;6.97;;
33864;SDS011;20159;51.072;13.526;2023-03-21T09:20:42;8.65;;;6.32;;
33864;SDS011;20159;51.072;13.526;2023-03-21T09:23:09;8.43;;;6.18;;
33864;SDS011;20159;51.072;13.526;2023-03-21T09:25:35;8.57;;;5.40;;
33864;SDS011;20159;51.072;13.526;2023-03-21T09:28:05;8.20;;;5.57;;
33864;SDS011;20159;51.072;13.526;2023-03-21T09:30:31;7.38;;;5.25;;
33864;SDS011;20159;51.072;13.526;2023-03-21T09:32:58;7.97;;;5.63;;
33864;SDS011;20159;51.072;13.526;2023-03-21T09:35:24;7.80;;;5.60;;
33864;SDS011;20159;51.072;13.526;2023-03-21T09:37:51;7.85;;;5.47;;
33864;SDS011;20159;51.072;13.526;2023-03-21T09:40:18;6.85;;;5.50;;
33864;SDS011;20159;51.072;13.526;2023-03-21T09:42:56;6.65;;;5.32;;
33864;SDS011;20159;51.072;13.526;2023-03-21T09:48:02;8.02;;;6.05;;
33864;SDS011;20159;51.072;13.526;2023-03-21T09:50:34;8.00;;;6.57;;
33864;SDS011;20159;51.072;13.526;2023-03-21T09:53:03;8.10;;;6.57;;
33864;SDS011;20159;51.072;13.526;2023-03-21T09:55:41;8.30;;;6.75;;
33864;SDS011;20159;51.072;13.526;2023-03-21T09:58:14;9.18;;;7.35;;
33864;SDS011;20159;51.072;13.526;2023-03-21T10:00:58;7.97;;;6.82;;
33864;SDS011;20159;51.072;13.526;2023-03-21T10:03:31;8.20;;;6.93;;
33864;SDS011;20159;51.072;13.526;2023-03-21T10:06:02;8.25;;;6.70;;
33864;SDS011;20159;51.072;13.526;2023-03-21T10:08:34;7.97;;;7.00;;
33864;SDS011;20159;51.072;13.526;2023-03-21T10:11:05;8.63;;;6.57;;
33864;SDS011;20159;51.072;13.526;2023-03-21T10:13:47;7.88;;;6.32;;
33864;SDS011;20159;51.072;13.526;2023-03-21T10:16:24;9.60;;;6.70;;
33864;SDS011;20159;51.072;13.526;2023-03-21T10:19:02;6.78;;;5.93;;
33864;SDS011;20159;51.072;13.526;2023-03-21T10:21:32;7.10;;;5.78;;
33864;SDS011;20159;51.072;13.526;2023-03-21T10:23:57;7.20;;;5.57;;
33864;SDS011;20159;51.072;13.526;2023-03-21T10:26:24;6.38;;;5.32;;
33864;SDS011;20159;51.072;13.526;2023-03-21T10:28:56;6.57;;;5.30;;
33864;SDS011;20159;51.072;13.526;2023-03-21T10:31:26;6.18;;;5.50;;
33864;SDS011;20159;51.072;13.526;2023-03-21T10:34:01;5.55;;;4.63;;
33864;SDS011;20159;51.072;13.526;2023-03-21T10:36:30;6.80;;;5.05;;
33864;SDS011;20159;51.072;13.526;2023-03-21T10:41:22;6.20;;;4.68;;
33864;SDS011;20159;51.072;13.526;2023-03-21T10:44:02;4.72;;;4.22;;
33864;SDS011;20159;51.072;13.526;2023-03-21T10:46:31;4.88;;;4.32;;
33864;SDS011;20159;51.072;13.526;2023-03-21T10:48:57;6.78;;;4.05;;
33864;SDS011;20159;51.072;13.526;2023-03-21T10:51:25;9.63;;;4.10;;
33864;SDS011;20159;51.072;13.526;2023-03-21T10:53:55;5.40;;;4.00;;
33864;SDS011;20159;51.072;13.526;2023-03-21T10:56:31;5.65;;;4.50;;
33864;SDS011;20159;51.072;13.526;2023-03-21T10:59:01;4.95;;;4.22;;
33864;SDS011;20159;51.072;13.526;2023-03-21T11:04:11;4.57;;;3.67;;
33864;SDS011;20159;51.072;13.526;2023-03-21T11:06:44;6.05;;;4.20;;
33864;SDS011;20159;51.072;13.526;2023-03-21T11:09:43;5.00;;;3.92;;
33864;SDS011;20159;51.072;13.526;2023-03-21T11:12:18;5.93;;;3.67;;
33864;SDS011;20159;51.072;13.526;2023-03-21T11:18:22;5.20;;;3.80;;
33864;SDS011;20159;51.072;13.526;2023-03-21T11:21:01;5.22;;;4.05;;
33864;SDS011;20159;51.072;13.526;2023-03-21T11:23:29;3.92;;;3.58;;
33864;SDS011;20159;51.072;13.526;2023-03-21T11:25:58;4.53;;;4.13;;
33864;SDS011;20159;51.072;13.526;2023-03-21T11:28:26;4.15;;;3.65;;
33864;SDS011;20159;51.072;13.526;2023-03-21T11:31:00;4.63;;;4.13;;
33864;SDS011;20159;51.072;13.526;2023-03-21T11:33:32;4.00;;;3.60;;
33864;SDS011;20159;51.072;13.526;2023-03-21T11:36:03;4.15;;;3.55;;
33864;SDS011;20159;51.072;13.526;2023-03-21T11:38:33;3.72;;;3.35;;
33864;SDS011;20159;51.072;13.526;2023-03-21T11:41:02;4.10;;;3.70;;
33864;SDS011;20159;51.072;13.526;2023-03-21T11:48:36;3.80;;;3.38;;
33864;SDS011;20159;51.072;13.526;2023-03-21T11:51:25;4.10;;;3.10;;
33864;SDS011;20159;51.072;13.526;2023-03-21T11:54:15;4.95;;;3.40;;
33864;SDS011;20159;51.072;13.526;2023-03-21T11:56:50;4.57;;;3.53;;
33864;SDS011;20159;51.072;13.526;2023-03-21T12:02:28;4.43;;;3.22;;
33864;SDS011;20159;51.072;13.526;2023-03-21T12:05:07;3.13;;;2.45;;
33864;SDS011;20159;51.072;13.526;2023-03-21T12:10:26;4.10;;;2.22;;
33864;SDS011;20159;51.072;13.526;2023-03-21T12:13:34;3.20;;;2.40;;
33864;SDS011;20159;51.072;13.526;2023-03-21T12:18:58;3.00;;;2.40;;
33864;SDS011;20159;51.072;13.526;2023-03-21T12:21:33;3.45;;;2.20;;
33864;SDS011;20159;51.072;13.526;2023-03-21T12:24:06;4.43;;;2.55;;
33864;SDS011;20159;51.072;13.526;2023-03-21T12:26:43;3.00;;;2.33;;
33864;SDS011;20159;51.072;13.526;2023-03-21T12:35:23;2.45;;;1.88;;
33864;SDS011;20159;51.072;13.526;2023-03-21T12:37:52;2.33;;;1.85;;
33864;SDS011;20159;51.072;13.526;2023-03-21T12:45:57;2.83;;;1.88;;
33864;SDS011;20159;51.072;13.526;2023-03-21T12:48:31;2.53;;;2.00;;
33864;SDS011;20159;51.072;13.526;2023-03-21T12:51:03;2.60;;;2.08;;
33864;SDS011;20159;51.072;13.526;2023-03-21T12:53:42;3.03;;;2.00;;
33864;SDS011;20159;51.072;13.526;2023-03-21T12:56:19;2.70;;;1.90;;
33864;SDS011;20159;51.072;13.526;2023-03-21T13:01:47;3.95;;;1.92;;
33864;SDS011;20159;51.072;13.526;2023-03-21T13:07:06;4.68;;;2.10;;
33864;SDS011;20159;51.072;13.526;2023-03-21T13:09:36;2.33;;;1.80;;
33864;SDS011;20159;51.072;13.526;2023-03-21T13:14:51;2.58;;;1.58;;
33864;SDS011;20159;51.072;13.526;2023-03-21T13:17:44;2.60;;;1.70;;
33864;SDS011;20159;51.072;13.526;2023-03-21T13:20:28;2.03;;;1.52;;
33864;SDS011;20159;51.072;13.526;2023-03-21T13:23:03;4.28;;;1.67;;
33864;SDS011;20159;51.072;13.526;2023-03-21T13:25:30;3.08;;;1.77;;
33864;SDS011;20159;51.072;13.526;2023-03-21T13:28:00;2.53;;;1.90;;
33864;SDS011;20159;51.072;13.526;2023-03-21T13:30:28;2.40;;;1.63;;
33864;SDS011;20159;51.072;13.526;2023-03-21T13:33:03;2.33;;;1.85;;
33864;SDS011;20159;51.072;13.526;2023-03-21T13:35:36;3.20;;;1.65;;
33864;SDS011;20159;51.072;13.526;2023-03-21T13:38:13;3.13;;;1.75;;
33864;SDS011;20159;51.072;13.526;2023-03-21T13:40:57;2.30;;;1.80;;
33864;SDS011;20159;51.072;13.526;2023-03-21T13:43:43;3.00;;;1.85;;
33864;SDS011;20159;51.072;13.526;2023-03-21T13:56:56;2.13;;;1.63;;
33864;SDS011;20159;51.072;13.526;2023-03-21T13:59:35;3.20;;;1.77;;
33864;SDS011;20159;51.072;13.526;2023-03-21T14:05:00;2.17;;;1.50;;
33864;SDS011;20159;51.072;13.526;2023-03-21T14:07:31;2.38;;;1.83;;
33864;SDS011;20159;51.072;13.526;2023-03-21T14:10:01;2.42;;;1.52;;
33864;SDS011;20159;51.072;13.526;2023-03-21T14:12:33;2.40;;;1.88;;
33864;SDS011;20159;51.072;13.526;2023-03-21T14:15:04;1.67;;;1.30;;
33864;SDS011;20159;51.072;13.526;2023-03-21T14:17:37;3.00;;;1.70;;
33864;SDS011;20159;51.072;13.526;2023-03-21T14:22:58;2.28;;;1.55;;
33864;SDS011;20159;51.072;13.526;2023-03-21T14:25:25;2.60;;;1.52;;
33864;SDS011;20159;51.072;13.526;2023-03-21T14:27:59;3.10;;;1.23;;
33864;SDS011;20159;51.072;13.526;2023-03-21T14:32:58;2.22;;;1.60;;
33864;SDS011;20159;51.072;13.526;2023-03-21T14:35:29;2.70;;;1.55;;
33864;SDS011;20159;51.072;13.526;2023-03-21T14:37:55;1.73;;;1.33;;
33864;SDS011;20159;51.072;13.526;2023-03-21T14:40:25;2.20;;;1.42;;
33864;SDS011;20159;51.072;13.526;2023-03-21T14:42:52;1.73;;;1.23;;
33864;SDS011;20159;51.072;13.526;2023-03-21T14:45:28;1.73;;;1.20;;
33864;SDS011;20159;51.072;13.526;2023-03-21T14:48:03;2.03;;;1.40;;
33864;SDS011;20159;51.072;13.526;2023-03-21T14:50:38;2.95;;;1.70;;
33864;SDS011;20159;51.072;13.526;2023-03-21T14:53:15;2.78;;;1.70;;
33864;SDS011;20159;51.072;13.526;2023-03-21T14:55:59;2.35;;;1.45;;
33864;SDS011;20159;51.072;13.526;2023-03-21T14:58:30;2.28;;;1.55;;
33864;SDS011;20159;51.072;13.526;2023-03-21T15:00:57;3.85;;;1.80;;
33864;SDS011;20159;51.072;13.526;2023-03-21T15:03:27;4.40;;;2.05;;
33864;SDS011;20159;51.072;13.526;2023-03-21T15:05:53;1.90;;;1.65;;
33864;SDS011;20159;51.072;13.526;2023-03-21T15:08:21;3.35;;;1.90;;
33864;SDS011;20159;51.072;13.526;2023-03-21T15:10:57;1.95;;;1.42;;
33864;SDS011;20159;51.072;13.526;2023-03-21T15:13:35;2.88;;;1.75;;
33864;SDS011;20159;51.072;13.526;2023-03-21T15:16:10;2.75;;;1.85;;
33864;SDS011;20159;51.072;13.526;2023-03-21T15:18:37;1.95;;;1.50;;
33864;SDS011;20159;51.072;13.526;2023-03-21T15:21:17;4.65;;;1.83;;
33864;SDS011;20159;51.072;13.526;2023-03-21T15:23:47;2.60;;;1.60;;
33864;SDS011;20159;51.072;13.526;2023-03-21T15:26:18;2.67;;;1.77;;
33864;SDS011;20159;51.072;13.526;2023-03-21T15:28:46;2.80;;;1.70;;
33864;SDS011;20159;51.072;13.526;2023-03-21T15:31:15;2.30;;;1.58;;
33864;SDS011;20159;51.072;13.526;2023-03-21T15:33:49;2.60;;;1.75;;
33864;SDS011;20159;51.072;13.526;2023-03-21T15:36:20;2.85;;;1.75;;
33864;SDS011;20159;51.072;13.526;2023-03-21T15:38:49;5.40;;;1.88;;
33864;SDS011;20159;51.072;13.526;2023-03-21T15:43:45;2.80;;;1.60;;
33864;SDS011;20159;51.072;13.526;2023-03-21T15:46:12;2.25;;;1.90;;
33864;SDS011;20159;51.072;13.526;2023-03-21T15:48:39;3.60;;;2.05;;
33864;SDS011;20159;51.072;13.526;2023-03-21T15:51:05;2.20;;;1.90;;
33864;SDS011;20159;51.072;13.526;2023-03-21T15:53:35;3.50;;;2.35;;
33864;SDS011;20159;51.072;13.526;2023-03-21T15:56:03;2.95;;;2.17;;
33864;SDS011;20159;51.072;13.526;2023-03-21T15:58:33;3.25;;;1.90;;
33864;SDS011;20159;51.072;13.526;2023-03-21T16:01:15;3.05;;;1.85;;
33864;SDS011;20159;51.072;13.526;2023-03-21T16:03:46;5.37;;;2.17;;
33864;SDS011;20159;51.072;13.526;2023-03-21T16:06:20;2.70;;;2.05;;
33864;SDS011;20159;51.072;13.526;2023-03-21T16:08:50;3.17;;;2.13;;